Time;durP1;ratioP1;P1;durP2;ratioP2;P2;SDS_P1;SDS_P2;PMS_P1;PMS_P2;Temp;Humidity;BMP_temperature;BMP_pressure;BME280_temperature;BME280_humidity;BME280_pressure;Samples;Min_cycle;Max_cycle;Signal;HPM_P1;HPM_P2
2022/02/21 00:01:42;;;;;;;52.23;22.50;;;0.50;99.90;;;;;;4162847;28;20278;-54
2022/02/21 00:03:43;;;;;;;56.23;23.60;;;0.50;99.90;;;;;;4162214;28;20823;-82
2022/02/21 00:05:44;;;;;;;49.83;22.77;;;0.40;99.90;;;;;;4163432;28;20356;-42
2022/02/21 00:07:46;;;;;;;44.13;20.93;;;0.40;99.90;;;;;;4160603;28;20752;-72
2022/02/21 00:09:47;;;;;;;55.57;23.43;;;0.30;99.90;;;;;;4170430;28;20282;-57
2022/02/21 00:11:48;;;;;;;53.07;21.27;;;0.20;99.90;;;;;;4174585;28;20746;-65
2022/02/21 00:13:49;;;;;;;51.07;21.93;;;0.20;99.90;;;;;;4158093;28;20274;-68
2022/02/21 00:15:50;;;;;;;55.93;21.97;;;0.10;99.90;;;;;;4172970;28;20379;-86
2022/02/21 00:17:52;;;;;;;46.50;20.27;;;0.00;99.90;;;;;;4157519;28;20304;-62
2022/02/21 00:19:53;;;;;;;48.07;20.43;;;0.10;99.90;;;;;;4157090;28;20278;-65
2022/02/21 00:21:55;;;;;;;47.47;21.33;;;0.10;99.90;;;;;;4158459;28;20294;-70
2022/02/21 00:23:56;;;;;;;43.60;19.80;;;0.20;99.90;;;;;;4158180;28;20274;-59
2022/02/21 00:25:57;;;;;;;44.90;19.83;;;0.20;99.90;;;;;;4159323;28;20279;-52
2022/02/21 00:27:58;;;;;;;45.03;20.43;;;0.20;99.90;;;;;;4157525;28;20337;-76
2022/02/21 00:29:59;;;;;;;45.97;20.50;;;0.20;99.90;;;;;;4158667;28;20340;-55
2022/02/21 00:32:01;;;;;;;46.30;19.33;;;0.10;99.90;;;;;;4172143;28;20415;-66
2022/02/21 00:34:02;;;;;;;44.17;19.60;;;0.20;99.90;;;;;;4173435;28;20274;-78
2022/02/21 00:36:04;;;;;;;43.03;18.73;;;0.20;99.90;;;;;;4172298;28;20294;-85
2022/02/21 00:38:05;;;;;;;46.17;19.80;;;0.10;99.90;;;;;;4158839;28;20730;-46
2022/02/21 00:40:07;;;;;;;42.17;18.67;;;0.10;99.90;;;;;;4157572;28;20762;-56
2022/02/21 00:42:08;;;;;;;47.37;20.80;;;0.10;99.90;;;;;;4158886;28;20278;-87
2022/02/21 00:44:09;;;;;;;47.40;19.67;;;0.10;99.90;;;;;;4158766;28;20654;-72
2022/02/21 00:46:10;;;;;;;43.43;18.17;;;0.00;99.90;;;;;;4158700;28;20283;-73
2022/02/21 00:48:11;;;;;;;41.53;19.53;;;0.00;99.90;;;;;;4173708;28;20266;-70
2022/02/21 00:50:12;;;;;;;43.43;19.77;;;0.00;99.90;;;;;;4178811;28;20316;-68
2022/02/21 00:52:14;;;;;;;48.33;19.93;;;0.00;99.90;;;;;;4175773;28;20304;-63
2022/02/21 00:54:15;;;;;;;44.30;18.97;;;0.00;99.90;;;;;;4177295;28;20254;-74
2022/02/21 00:56:16;;;;;;;41.13;18.67;;;0.00;99.90;;;;;;4176929;28;20337;-61
2022/02/21 00:58:17;;;;;;;41.87;19.20;;;-0.10;99.90;;;;;;4177646;28;20274;-64
2022/02/21 01:00:19;;;;;;;42.67;18.93;;;0.00;99.90;;;;;;4177430;28;20521;-54
2022/02/21 01:02:20;;;;;;;47.63;20.33;;;0.00;99.90;;;;;;4176148;28;20343;-53
2022/02/21 01:04:21;;;;;;;49.77;20.90;;;0.00;99.90;;;;;;4177963;28;20277;-61
2022/02/21 01:06:23;;;;;;;37.63;17.77;;;0.00;99.90;;;;;;4174489;28;20907;-72
2022/02/21 01:08:24;;;;;;;41.60;18.80;;;0.00;99.90;;;;;;4163445;28;20791;-55
2022/02/21 01:10:26;;;;;;;43.67;19.03;;;0.00;99.90;;;;;;4169231;28;20274;-51
2022/02/21 01:12:27;;;;;;;43.30;19.27;;;0.00;99.90;;;;;;4175702;28;20282;-59
2022/02/21 01:14:29;;;;;;;41.90;19.13;;;0.00;99.90;;;;;;4174074;28;20293;-72
2022/02/21 01:16:30;;;;;;;39.90;19.23;;;0.00;99.90;;;;;;4179391;28;20270;-45
2022/02/21 01:18:32;;;;;;;42.43;19.50;;;-0.10;99.90;;;;;;4176754;28;20684;-53
2022/02/21 01:20:33;;;;;;;39.97;19.90;;;-0.10;99.90;;;;;;4177487;28;21288;-59
2022/02/21 01:22:35;;;;;;;47.37;19.07;;;-0.10;99.90;;;;;;4165695;28;20283;-63
2022/02/21 01:24:36;;;;;;;41.43;18.10;;;-0.10;99.90;;;;;;4161159;28;20258;-61
2022/02/21 01:26:37;;;;;;;40.97;18.60;;;-0.10;99.90;;;;;;4159553;28;20372;-62
2022/02/21 01:28:38;;;;;;;40.73;18.97;;;-0.10;99.90;;;;;;4160293;28;20282;-64
2022/02/21 01:30:39;;;;;;;41.13;17.83;;;-0.10;99.90;;;;;;4161017;28;20317;-70
2022/02/21 01:32:40;;;;;;;43.10;20.77;;;-0.10;99.90;;;;;;4159475;28;20261;-45
2022/02/21 01:34:42;;;;;;;41.83;18.90;;;-0.10;99.90;;;;;;4162872;28;20316;-73
2022/02/21 01:36:43;;;;;;;39.90;17.87;;;0.00;99.90;;;;;;4159591;28;20289;-61
2022/02/21 01:38:44;;;;;;;37.13;17.90;;;0.00;99.90;;;;;;4158732;28;20675;-72
2022/02/21 01:40:46;;;;;;;41.00;18.47;;;0.00;99.90;;;;;;4176541;28;20293;-58
2022/02/21 01:42:47;;;;;;;42.73;18.03;;;0.00;99.90;;;;;;4177926;28;20351;-60
2022/02/21 01:44:50;;;;;;;38.43;18.20;;;0.00;99.90;;;;;;4174849;28;20278;-61
2022/02/21 01:46:51;;;;;;;42.40;18.00;;;0.00;99.90;;;;;;4176386;28;20289;-64
2022/02/21 01:48:52;;;;;;;33.67;16.87;;;-0.10;99.90;;;;;;4163881;28;20271;-63
2022/02/21 01:50:53;;;;;;;35.47;16.53;;;-0.10;99.90;;;;;;4173614;28;20328;-86
2022/02/21 01:52:54;;;;;;;41.93;16.80;;;0.00;99.90;;;;;;4165509;28;20278;-78
2022/02/21 01:54:56;;;;;;;36.83;16.13;;;0.00;99.90;;;;;;4162143;28;20961;-80
2022/02/21 01:56:58;;;;;;;35.23;16.97;;;0.00;99.90;;;;;;4161307;28;20275;-51
2022/02/21 01:58:59;;;;;;;30.00;13.97;;;0.00;99.90;;;;;;4171110;28;20281;-53
2022/02/21 02:01:01;;;;;;;32.10;15.37;;;-0.10;99.90;;;;;;4176171;28;20258;-55
2022/02/21 02:03:02;;;;;;;34.60;14.87;;;-0.10;99.90;;;;;;4176524;28;20270;-57
2022/02/21 02:05:03;;;;;;;33.00;14.77;;;-0.10;99.90;;;;;;4177233;28;20280;-82
2022/02/21 02:07:06;;;;;;;31.00;14.13;;;-0.10;99.90;;;;;;4174370;28;20324;-72
2022/02/21 02:09:07;;;;;;;30.33;15.27;;;-0.10;99.90;;;;;;4175815;28;20737;-66
2022/02/21 02:11:09;;;;;;;34.80;15.27;;;-0.10;99.90;;;;;;4176535;28;20744;-78
2022/02/21 02:13:10;;;;;;;30.33;14.47;;;-0.10;99.90;;;;;;4178309;28;20327;-53
2022/02/21 02:15:16;;;;;;;32.77;15.73;;;-0.10;99.90;;;;;;4178703;28;20297;-66
2022/02/21 02:17:18;;;;;;;32.03;14.47;;;-0.10;99.90;;;;;;4180651;28;20300;-59
2022/02/21 02:19:19;;;;;;;29.93;14.40;;;-0.10;99.90;;;;;;4175278;28;20317;-67
2022/02/21 02:21:23;;;;;;;33.20;14.03;;;-0.10;99.90;;;;;;4169653;28;20270;-71
2022/02/21 02:23:24;;;;;;;32.47;14.47;;;-0.10;99.90;;;;;;4163319;28;20279;-58
2022/02/21 02:25:25;;;;;;;32.70;14.13;;;-0.10;99.90;;;;;;4163338;28;20271;-52
2022/02/21 02:27:27;;;;;;;26.70;13.10;;;-0.20;99.90;;;;;;4163307;28;20309;-77
2022/02/21 02:29:28;;;;;;;35.23;14.80;;;-0.20;99.90;;;;;;4166231;28;20330;-53
2022/02/21 02:31:29;;;;;;;31.47;13.77;;;-0.10;99.90;;;;;;4178282;28;20344;-54
2022/02/21 02:33:33;;;;;;;29.40;13.87;;;-0.20;99.90;;;;;;4178054;28;20328;-41
2022/02/21 02:35:34;;;;;;;28.37;13.37;;;-0.20;99.90;;;;;;4176837;28;20767;-65
2022/02/21 02:37:35;;;;;;;27.00;13.57;;;-0.20;99.90;;;;;;4178687;28;20331;-65
2022/02/21 02:39:37;;;;;;;33.10;14.83;;;-0.20;99.90;;;;;;4162883;28;20309;-64
2022/02/21 02:41:40;;;;;;;29.93;14.37;;;-0.20;99.90;;;;;;4166393;28;20323;-51
2022/02/21 02:43:41;;;;;;;33.33;14.47;;;-0.20;99.90;;;;;;4178820;28;20277;-74
2022/02/21 02:45:45;;;;;;;35.33;13.60;;;-0.10;99.90;;;;;;4179116;28;20661;-47
2022/02/21 02:47:46;;;;;;;30.73;13.70;;;-0.10;99.90;;;;;;4177686;28;20258;-75
2022/02/21 02:49:47;;;;;;;30.27;14.13;;;-0.10;99.90;;;;;;4174782;28;20326;-65
2022/02/21 02:51:49;;;;;;;31.17;14.10;;;-0.10;99.90;;;;;;4181525;28;20273;-67
2022/02/21 02:53:50;;;;;;;32.33;13.60;;;0.00;99.90;;;;;;4176316;28;20344;-75
2022/02/21 02:55:51;;;;;;;30.13;14.07;;;0.00;99.90;;;;;;4177437;28;20290;-75
2022/02/21 02:57:52;;;;;;;30.93;15.53;;;0.00;99.90;;;;;;4161032;28;20278;-68
2022/02/21 02:59:54;;;;;;;26.60;13.23;;;0.00;99.90;;;;;;4163473;28;20992;-66
2022/02/21 03:01:55;;;;;;;29.17;13.80;;;0.00;99.90;;;;;;4161431;28;20313;-78
2022/02/21 03:03:56;;;;;;;27.33;13.10;;;-0.10;99.90;;;;;;4163180;28;20275;-79
2022/02/21 03:05:57;;;;;;;31.47;11.93;;;-0.10;99.90;;;;;;4181725;28;20995;-87
2022/02/21 03:07:58;;;;;;;25.50;11.87;;;0.00;99.90;;;;;;4162865;28;20734;-56
2022/02/21 03:09:59;;;;;;;28.30;12.77;;;0.00;99.90;;;;;;4185929;28;20772;-61
2022/02/21 03:12:01;;;;;;;25.77;12.67;;;0.10;99.90;;;;;;4160094;28;20309;-67
2022/02/21 03:14:02;;;;;;;26.27;11.20;;;0.10;99.90;;;;;;4162618;28;20711;-75
2022/02/21 03:16:03;;;;;;;28.70;12.13;;;0.10;99.90;;;;;;4160841;28;20775;-65
2022/02/21 03:18:05;;;;;;;36.20;14.23;;;0.10;99.90;;;;;;4160899;28;20275;-52
2022/02/21 03:20:06;;;;;;;31.50;14.83;;;0.00;99.90;;;;;;4162697;28;20266;-58
2022/02/21 03:22:09;;;;;;;28.70;13.37;;;0.00;99.90;;;;;;4175668;28;20320;-50
2022/02/21 03:24:10;;;;;;;30.40;13.20;;;-0.10;99.90;;;;;;4166632;28;20274;-77
2022/02/21 03:26:11;;;;;;;27.43;14.93;;;-0.10;99.90;;;;;;4178608;28;20262;-58
2022/02/21 03:28:12;;;;;;;28.23;13.17;;;-0.10;99.90;;;;;;4175483;28;20300;-60
2022/02/21 03:30:14;;;;;;;32.77;15.97;;;-0.20;99.90;;;;;;4174158;28;20279;-49
2022/02/21 03:32:16;;;;;;;29.87;15.53;;;-0.20;99.90;;;;;;4175768;28;20746;-46
2022/02/21 03:34:17;;;;;;;36.17;14.47;;;-0.20;99.90;;;;;;4173945;28;20682;-49
2022/02/21 03:36:18;;;;;;;34.07;13.47;;;-0.30;99.90;;;;;;4175339;28;20710;-79
2022/02/21 03:38:19;;;;;;;25.83;11.57;;;-0.30;99.90;;;;;;4175665;28;20603;-81
2022/02/21 03:40:21;;;;;;;31.30;12.50;;;-0.30;99.90;;;;;;4175169;28;20362;-48
2022/02/21 03:42:22;;;;;;;27.67;13.07;;;-0.30;99.90;;;;;;4175492;28;20262;-81
2022/02/21 03:44:24;;;;;;;29.33;13.80;;;-0.40;99.90;;;;;;4172754;28;20281;-58
2022/02/21 03:46:25;;;;;;;44.93;16.10;;;-0.40;99.90;;;;;;4158366;28;20666;-47
2022/02/21 03:48:26;;;;;;;31.77;15.00;;;-0.50;99.90;;;;;;4159184;28;20317;-58
2022/02/21 03:50:27;;;;;;;36.37;14.40;;;-0.60;99.90;;;;;;4158658;28;20305;-70
2022/02/21 03:52:29;;;;;;;36.00;15.07;;;-0.60;99.90;;;;;;4165265;28;20273;-62
2022/02/21 03:54:30;;;;;;;38.20;13.93;;;-0.50;99.90;;;;;;4173205;28;21073;-64
2022/02/21 03:56:32;;;;;;;29.37;13.80;;;-0.40;99.90;;;;;;4171667;28;21412;-69
2022/02/21 03:58:33;;;;;;;27.13;12.63;;;-0.40;99.90;;;;;;4158356;28;20336;-63
2022/02/21 04:00:35;;;;;;;28.67;13.30;;;-0.40;99.90;;;;;;4171236;28;20278;-49
2022/02/21 04:02:36;;;;;;;32.67;14.77;;;-0.40;99.90;;;;;;4158148;28;20312;-62
2022/02/21 04:04:37;;;;;;;29.73;12.90;;;-0.40;99.90;;;;;;4159908;28;20336;-63
2022/02/21 04:06:39;;;;;;;24.87;11.83;;;-0.50;99.90;;;;;;4163086;28;20273;-71
2022/02/21 04:08:41;;;;;;;30.90;14.30;;;-0.60;99.90;;;;;;4173118;28;20274;-68
2022/02/21 04:10:42;;;;;;;29.60;13.07;;;-0.70;99.90;;;;;;4173044;28;20338;-75
2022/02/21 04:12:44;;;;;;;26.67;13.80;;;-0.80;99.90;;;;;;4173404;28;20298;-73
2022/02/21 04:14:45;;;;;;;28.23;13.83;;;-0.80;99.90;;;;;;4158640;28;20346;-73
2022/02/21 04:16:46;;;;;;;32.40;13.57;;;-0.80;99.90;;;;;;4173835;28;20301;-59
2022/02/21 04:18:47;;;;;;;30.67;14.00;;;-0.80;99.90;;;;;;4175936;28;21078;-67
2022/02/21 04:20:48;;;;;;;31.07;14.13;;;-0.90;99.90;;;;;;4188203;28;20842;-73
2022/02/21 04:22:50;;;;;;;31.53;11.97;;;-0.90;99.90;;;;;;4175733;28;20273;-72
2022/02/21 04:24:52;;;;;;;29.17;13.00;;;-0.80;99.90;;;;;;4171395;28;20733;-62
2022/02/21 04:26:53;;;;;;;39.00;13.83;;;-0.80;99.90;;;;;;4169321;28;20418;-68
2022/02/21 04:28:54;;;;;;;27.47;12.00;;;-0.80;99.90;;;;;;4177573;28;20274;-46
2022/02/21 04:30:55;;;;;;;32.60;14.67;;;-0.90;99.90;;;;;;4176149;28;20274;-64
2022/02/21 04:32:56;;;;;;;25.80;12.30;;;-0.90;99.90;;;;;;4176902;28;20277;-65
2022/02/21 04:34:57;;;;;;;27.00;12.40;;;-1.00;99.90;;;;;;4176732;28;20304;-49
2022/02/21 04:36:59;;;;;;;33.30;13.50;;;-1.00;99.90;;;;;;4176971;28;20765;-65
2022/02/21 04:39:00;;;;;;;43.03;14.50;;;-1.00;99.90;;;;;;4177944;28;20320;-46
2022/02/21 04:41:01;;;;;;;44.27;19.10;;;-1.00;99.90;;;;;;4176159;28;20273;-86
2022/02/21 04:43:03;;;;;;;30.13;13.13;;;-0.90;99.90;;;;;;4167297;28;20317;-62
2022/02/21 04:45:04;;;;;;;27.00;11.83;;;-0.90;99.90;;;;;;4161400;28;20713;-56
2022/02/21 04:47:06;;;;;;;28.07;12.80;;;-0.80;99.90;;;;;;4175505;28;20812;-65
2022/02/21 04:49:07;;;;;;;32.60;12.33;;;-0.80;99.90;;;;;;4176651;28;20285;-69
2022/02/21 04:51:08;;;;;;;17.97;8.83;;;-0.80;99.90;;;;;;4177403;28;20308;-64
2022/02/21 04:53:09;;;;;;;17.33;8.07;;;-0.70;99.90;;;;;;4178373;28;20685;-56
2022/02/21 04:55:13;;;;;;;19.63;10.27;;;-0.50;99.90;;;;;;4167893;28;20348;-76
2022/02/21 04:57:15;;;;;;;46.13;17.07;;;-0.40;99.90;;;;;;4161615;28;20306;-74
2022/02/21 04:59:16;;;;;;;40.73;18.57;;;-0.40;99.90;;;;;;4163764;28;20335;-78
2022/02/21 05:01:17;;;;;;;39.63;14.60;;;-0.30;99.90;;;;;;4177142;28;20344;-77
2022/02/21 05:03:18;;;;;;;41.37;15.50;;;-0.30;99.90;;;;;;4177251;28;20375;-66
2022/02/21 05:05:20;;;;;;;29.57;13.27;;;-0.30;99.90;;;;;;4172993;28;20359;-90
2022/02/21 05:07:21;;;;;;;26.93;12.53;;;-0.30;99.90;;;;;;4177618;28;20273;-62
2022/02/21 05:09:22;;;;;;;36.70;14.47;;;-0.30;99.90;;;;;;4177534;28;20784;-67
2022/02/21 05:11:24;;;;;;;33.07;13.40;;;-0.20;99.90;;;;;;4168928;28;20286;-78
2022/02/21 05:13:26;;;;;;;26.73;11.43;;;-0.20;99.90;;;;;;4159880;28;20315;-68
2022/02/21 05:15:27;;;;;;;22.57;10.57;;;-0.20;99.90;;;;;;4170657;28;20343;-68
2022/02/21 05:17:29;;;;;;;26.63;12.53;;;-0.10;99.90;;;;;;4160833;28;20271;-61
2022/02/21 05:19:31;;;;;;;38.83;12.83;;;-0.10;99.90;;;;;;4170260;28;20262;-77
2022/02/21 05:21:32;;;;;;;34.07;12.67;;;-0.10;99.90;;;;;;4159486;28;20705;-68
2022/02/21 05:23:34;;;;;;;37.30;13.77;;;0.00;99.90;;;;;;4174307;28;20289;-66
2022/02/21 05:25:35;;;;;;;29.13;12.63;;;0.10;99.90;;;;;;4177293;28;20270;-66
2022/02/21 05:27:37;;;;;;;24.27;11.37;;;0.10;99.90;;;;;;4178138;28;20274;-67
2022/02/21 05:29:38;;;;;;;32.00;13.03;;;0.20;99.90;;;;;;4186195;28;20784;-61
2022/02/21 05:31:39;;;;;;;31.10;14.07;;;0.40;99.90;;;;;;4166415;28;20277;-88
2022/02/21 05:33:41;;;;;;;44.43;15.70;;;0.70;99.90;;;;;;4176807;28;20304;-80
2022/02/21 05:35:42;;;;;;;40.53;14.87;;;1.00;99.90;;;;;;4173662;28;20340;-64
2022/02/21 05:37:46;;;;;;;46.53;15.70;;;1.30;99.90;;;;;;4175038;28;20293;-56
2022/02/21 05:39:48;;;;;;;36.60;15.20;;;1.60;99.90;;;;;;4177695;28;20269;-62
2022/02/21 05:41:49;;;;;;;27.33;13.90;;;2.00;99.90;;;;;;4177097;28;20258;-78
2022/02/21 05:43:50;;;;;;;44.50;15.27;;;2.20;99.90;;;;;;4172965;28;20320;-69
2022/02/21 05:45:51;;;;;;;35.73;15.20;;;2.40;99.90;;;;;;4175763;28;20284;-69
2022/02/21 05:47:52;;;;;;;35.70;13.53;;;2.80;99.90;;;;;;4159233;28;20792;-68
2022/02/21 05:49:54;;;;;;;33.00;12.60;;;3.20;99.90;;;;;;4160713;28;20250;-69
2022/02/21 05:51:55;;;;;;;27.40;10.03;;;3.60;99.90;;;;;;4159447;28;20325;-71
2022/02/21 05:53:56;;;;;;;30.27;11.63;;;4.00;99.90;;;;;;4160757;28;20317;-71
2022/02/21 05:55:58;;;;;;;16.87;8.73;;;4.30;99.90;;;;;;4164574;28;20405;-61
2022/02/21 05:58:00;;;;;;;31.57;10.87;;;4.40;99.90;;;;;;4175121;28;20262;-72
2022/02/21 06:00:02;;;;;;;34.77;12.10;;;4.60;99.90;;;;;;4175946;28;20278;-59
2022/02/21 06:02:04;;;;;;;34.80;13.03;;;4.50;99.90;;;;;;4171204;28;20337;-68
2022/02/21 06:04:06;;;;;;;43.53;15.60;;;4.40;99.90;;;;;;4175634;28;20316;-88
2022/02/21 06:06:07;;;;;;;49.40;20.43;;;4.20;99.90;;;;;;4176068;28;20353;-64
2022/02/21 06:08:09;;;;;;;60.10;25.00;;;3.90;99.90;;;;;;4177324;28;21195;-68
2022/02/21 06:10:11;;;;;;;69.67;28.33;;;3.60;99.90;;;;;;4176610;28;20274;-56
2022/02/21 06:12:12;;;;;;;88.17;37.73;;;3.50;99.90;;;;;;4176362;28;20783;-69
2022/02/21 06:14:13;;;;;;;92.93;37.80;;;3.60;99.90;;;;;;4170986;28;20320;-54
2022/02/21 06:16:15;;;;;;;63.83;29.23;;;3.80;99.90;;;;;;4176794;28;20403;-73
2022/02/21 06:18:16;;;;;;;40.90;20.57;;;4.00;99.90;;;;;;4173194;28;20278;-64
2022/02/21 06:20:17;;;;;;;41.37;19.63;;;4.20;99.90;;;;;;4170360;28;21260;-59
2022/02/21 06:22:18;;;;;;;42.93;18.27;;;4.30;99.90;;;;;;4174589;28;20615;-65
2022/02/21 06:24:19;;;;;;;32.67;17.03;;;4.60;99.90;;;;;;4175083;28;20423;-81
2022/02/21 06:26:20;;;;;;;32.67;16.80;;;4.80;99.90;;;;;;4182163;28;20286;-83
2022/02/21 06:28:24;;;;;;;43.23;17.67;;;5.00;99.90;;;;;;4160355;28;20340;-81
2022/02/21 06:30:25;;;;;;;45.17;18.50;;;5.00;99.90;;;;;;4173928;28;20285;-51
2022/02/21 06:32:26;;;;;;;49.20;19.47;;;4.90;99.90;;;;;;4176201;28;20643;-87
2022/02/21 06:34:27;;;;;;;45.07;17.13;;;4.80;99.90;;;;;;4169596;28;21286;-54
2022/02/21 06:36:29;;;;;;;23.80;12.17;;;4.90;99.90;;;;;;4168896;28;20041;-92
2022/02/21 06:38:30;;;;;;;22.67;11.23;;;4.90;99.90;;;;;;4162925;28;20029;-56
2022/02/21 06:40:32;;;;;;;16.03;10.40;;;4.80;99.90;;;;;;4183279;28;20037;-59
2022/02/21 06:42:34;;;;;;;22.90;9.53;;;4.90;99.90;;;;;;4170390;28;20029;-48
2022/02/21 06:44:35;;;;;;;19.70;10.03;;;5.00;99.90;;;;;;4160108;28;20041;-68
2022/02/21 06:46:36;;;;;;;21.50;10.83;;;5.20;99.90;;;;;;4175845;28;20997;-65
2022/02/21 06:48:37;;;;;;;18.37;9.33;;;5.60;99.90;;;;;;4174026;28;20078;-72
2022/02/21 06:50:38;;;;;;;18.07;8.87;;;5.80;99.90;;;;;;4175460;28;20543;-59
2022/02/21 06:52:40;;;;;;;14.97;8.83;;;5.80;99.90;;;;;;4174730;28;20078;-64
2022/02/21 06:54:41;;;;;;;20.43;9.43;;;5.90;99.90;;;;;;4175246;28;20091;-66
2022/02/21 06:56:42;;;;;;;16.03;8.93;;;5.70;99.90;;;;;;4172189;28;20067;-69
2022/02/21 06:58:43;;;;;;;22.20;9.80;;;5.70;99.90;;;;;;4167513;28;20040;-51
2022/02/21 07:00:45;;;;;;;13.97;7.90;;;5.70;99.90;;;;;;4174765;28;20274;-56
2022/02/21 07:02:46;;;;;;;15.43;8.07;;;5.60;99.90;;;;;;4175045;28;20656;-70
2022/02/21 07:04:47;;;;;;;16.53;8.97;;;5.40;99.90;;;;;;4174684;28;20689;-63
2022/02/21 07:06:48;;;;;;;12.40;6.93;;;5.30;99.90;;;;;;4174206;28;20274;-63
2022/02/21 07:08:49;;;;;;;10.40;5.13;;;5.40;99.90;;;;;;4160461;28;21239;-76
2022/02/21 07:10:50;;;;;;;7.83;4.57;;;5.60;99.90;;;;;;4166335;28;20300;-71
2022/02/21 07:12:52;;;;;;;9.87;5.37;;;5.50;99.90;;;;;;4163855;28;20270;-57
2022/02/21 07:14:53;;;;;;;9.27;5.07;;;5.50;99.90;;;;;;4163856;28;20286;-88
2022/02/21 07:16:54;;;;;;;10.63;5.47;;;5.40;99.90;;;;;;4166574;28;20359;-65
2022/02/21 07:18:56;;;;;;;8.67;5.20;;;5.50;99.90;;;;;;4171171;28;20343;-70
2022/02/21 07:20:57;;;;;;;8.13;5.20;;;5.50;99.90;;;;;;4175021;28;20351;-76
2022/02/21 07:22:58;;;;;;;10.07;5.30;;;5.50;99.90;;;;;;4170083;28;20684;-78
2022/02/21 07:24:59;;;;;;;9.60;5.40;;;5.80;99.90;;;;;;4168676;28;20324;-72
2022/02/21 07:27:00;;;;;;;10.50;6.27;;;5.80;99.90;;;;;;4166991;28;20278;-61
2022/02/21 07:29:02;;;;;;;10.63;5.93;;;5.90;99.90;;;;;;4175139;28;20323;-67
2022/02/21 07:31:06;;;;;;;13.53;5.63;;;5.80;99.90;;;;;;4174110;28;20347;-54
2022/02/21 07:33:08;;;;;;;18.40;6.47;;;5.80;99.90;;;;;;4174799;28;20383;-62
2022/02/21 07:35:10;;;;;;;11.83;5.57;;;5.80;99.90;;;;;;4174984;28;20277;-86
2022/02/21 07:37:11;;;;;;;11.67;5.33;;;6.00;99.90;;;;;;4172808;28;20851;-63
2022/02/21 07:39:12;;;;;;;13.47;6.63;;;5.90;99.90;;;;;;4173948;28;20319;-79
2022/02/21 07:41:13;;;;;;;17.23;6.73;;;5.70;99.90;;;;;;4170382;28;20278;-70
2022/02/21 07:43:14;;;;;;;21.33;6.30;;;5.70;99.90;;;;;;4188523;28;20285;-47
2022/02/21 07:45:17;;;;;;;13.07;6.53;;;5.80;99.90;;;;;;4161719;28;20864;-51
2022/02/21 07:47:20;;;;;;;15.37;7.77;;;5.80;99.90;;;;;;4158825;28;20291;-71
2022/02/21 07:49:21;;;;;;;17.97;6.83;;;6.00;99.90;;;;;;4158218;28;20287;-56
2022/02/21 07:51:22;;;;;;;12.20;5.33;;;6.20;99.90;;;;;;4159385;28;20332;-84
2022/02/21 07:53:23;;;;;;;12.53;6.00;;;6.30;99.90;;;;;;4158594;28;20301;-71
2022/02/21 07:55:25;;;;;;;9.63;5.07;;;6.50;99.90;;;;;;4160126;28;20348;-47
2022/02/21 07:57:26;;;;;;;22.57;7.67;;;6.70;99.90;;;;;;4167323;28;20305;-61
2022/02/21 07:59:30;;;;;;;18.83;6.67;;;6.80;99.90;;;;;;4174252;28;20328;-87
2022/02/21 08:01:31;;;;;;;8.87;4.70;;;7.00;99.90;;;;;;4162501;28;20274;-63
2022/02/21 08:03:36;;;;;;;16.03;4.50;;;7.10;99.90;;;;;;4162300;28;20286;-55
2022/02/21 08:05:38;;;;;;;9.37;3.90;;;7.20;99.90;;;;;;4162550;28;20263;-48
2022/02/21 08:07:42;;;;;;;6.47;4.23;;;7.30;99.90;;;;;;4161908;28;20666;-89
2022/02/21 08:09:43;;;;;;;8.27;4.10;;;7.40;99.90;;;;;;4162031;28;20313;-64
2022/02/21 08:11:44;;;;;;;14.67;4.20;;;7.30;99.90;;;;;;4168930;28;20273;-66
2022/02/21 08:13:45;;;;;;;13.30;4.63;;;7.30;99.90;;;;;;4167321;28;20271;-83
2022/02/21 08:15:46;;;;;;;9.13;4.57;;;7.20;99.90;;;;;;4165685;28;20091;-48
2022/02/21 08:17:49;;;;;;;9.80;4.80;;;7.20;99.90;;;;;;4177333;28;21146;-77
2022/02/21 08:19:50;;;;;;;14.73;5.00;;;7.30;99.90;;;;;;4177512;28;20258;-44
2022/02/21 08:21:52;;;;;;;8.80;4.57;;;7.20;99.90;;;;;;4178415;28;20362;-64
2022/02/21 08:23:53;;;;;;;13.20;5.73;;;7.20;99.90;;;;;;4171794;28;20370;-71
2022/02/21 08:25:54;;;;;;;13.77;5.00;;;7.20;99.90;;;;;;4252107;22;20005;-69
2022/02/21 08:27:55;;;;;;;9.47;5.00;;;7.20;99.90;;;;;;4174796;28;20352;-80
2022/02/21 08:29:56;;;;;;;9.37;5.13;;;7.20;99.90;;;;;;4178120;28;20024;-65
2022/02/21 08:31:58;;;;;;;11.67;5.83;;;7.20;99.90;;;;;;4178226;28;20339;-80
2022/02/21 08:33:59;;;;;;;13.07;5.60;;;7.20;99.90;;;;;;4162489;28;20266;-73
2022/02/21 08:36:00;;;;;;;10.03;4.80;;;7.20;99.90;;;;;;4172773;28;20421;-77
2022/02/21 08:38:02;;;;;;;9.27;5.40;;;7.30;99.90;;;;;;4160135;28;20874;-60
2022/02/21 08:40:09;;;;;;;10.30;5.47;;;7.50;99.90;;;;;;4160783;28;20270;-57
2022/02/21 08:42:10;;;;;;;11.53;6.30;;;7.60;99.90;;;;;;4161553;28;20366;-62
2022/02/21 08:44:11;;;;;;;14.83;6.30;;;7.70;99.90;;;;;;4170467;28;20025;-67
2022/02/21 08:46:13;;;;;;;11.63;6.33;;;7.70;99.90;;;;;;4175674;28;20688;-86
2022/02/21 08:48:15;;;;;;;13.17;6.13;;;7.60;99.90;;;;;;4158505;28;20484;-88
2022/02/21 08:50:16;;;;;;;16.20;7.30;;;7.60;99.90;;;;;;4176901;28;20507;-71
2022/02/21 08:52:18;;;;;;;9.90;5.93;;;7.80;99.90;;;;;;4177021;28;20025;-71
2022/02/21 08:54:19;;;;;;;13.87;6.07;;;7.80;99.90;;;;;;4177179;28;20324;-72
2022/02/21 08:56:20;;;;;;;12.97;7.33;;;7.90;99.90;;;;;;4176300;28;20078;-78
2022/02/21 08:58:21;;;;;;;14.87;7.57;;;8.00;99.90;;;;;;4175341;28;20163;-71
2022/02/21 09:00:22;;;;;;;20.93;9.83;;;8.20;99.90;;;;;;4170078;28;20036;-79
2022/02/21 09:02:24;;;;;;;12.93;7.10;;;8.40;99.90;;;;;;4164751;28;20029;-88
2022/02/21 09:04:25;;;;;;;14.13;6.87;;;8.50;99.90;;;;;;4158641;28;20037;-79
2022/02/21 09:06:26;;;;;;;11.93;6.23;;;8.50;99.90;;;;;;4175609;28;20460;-76
2022/02/21 09:08:31;;;;;;;15.87;6.43;;;8.60;99.90;;;;;;4176812;28;20082;-56
2022/02/21 09:10:33;;;;;;;12.43;5.50;;;8.70;99.90;;;;;;4178722;28;20021;-70
2022/02/21 09:12:34;;;;;;;13.53;5.73;;;8.90;99.90;;;;;;4159058;28;20560;-59
2022/02/21 09:14:36;;;;;;;16.50;5.53;;;9.00;99.90;;;;;;4178020;28;20029;-78
2022/02/21 09:16:37;;;;;;;11.03;4.83;;;9.10;99.90;;;;;;4176096;28;20110;-59
2022/02/21 09:18:38;;;;;;;11.87;6.43;;;9.10;99.90;;;;;;4176998;28;20053;-80
2022/02/21 09:20:39;;;;;;;9.97;5.60;;;9.20;99.90;;;;;;4177305;28;20090;-73
2022/02/21 09:22:41;;;;;;;9.73;5.27;;;9.30;99.90;;;;;;4177674;28;20060;-72
2022/02/21 09:24:42;;;;;;;18.67;6.07;;;9.40;99.90;;;;;;4177403;28;20472;-70
2022/02/21 09:26:43;;;;;;;9.30;5.23;;;9.50;99.90;;;;;;4177299;28;20065;-81
2022/02/21 09:28:45;;;;;;;8.50;4.27;;;9.50;99.90;;;;;;4177538;28;20473;-59
2022/02/21 09:30:46;;;;;;;13.13;5.20;;;9.60;99.90;;;;;;4164326;28;20029;-78
2022/02/21 09:32:47;;;;;;;12.27;5.40;;;9.70;99.90;;;;;;4160972;28;20033;-71
2022/02/21 09:34:48;;;;;;;14.83;5.17;;;9.90;99.90;;;;;;4159400;28;20099;-65
2022/02/21 09:36:50;;;;;;;12.07;5.97;;;10.00;99.90;;;;;;4160893;28;20446;-65
2022/02/21 09:38:51;;;;;;;12.97;5.23;;;10.10;99.90;;;;;;4158441;28;20087;-78
2022/02/21 09:40:54;;;;;;;14.50;5.00;;;10.30;99.90;;;;;;4160100;28;20030;-69
2022/02/21 09:42:59;;;;;;;15.07;6.30;;;10.50;99.90;;;;;;4158630;28;20171;-47
2022/02/21 09:45:00;;;;;;;9.27;4.30;;;10.60;99.50;;;;;;4160337;28;20420;-59
2022/02/21 09:47:03;;;;;;;10.40;4.53;;;10.60;98.90;;;;;;4159067;28;20066;-80
2022/02/21 09:49:04;;;;;;;8.90;5.30;;;10.50;98.70;;;;;;4171935;28;20037;-83
2022/02/21 09:51:06;;;;;;;8.60;4.63;;;10.20;98.70;;;;;;4175829;28;20350;-67
2022/02/21 09:53:08;;;;;;;7.53;4.13;;;10.10;98.90;;;;;;4177728;28;20040;-59
2022/02/21 09:55:09;;;;;;;12.60;5.30;;;10.10;98.90;;;;;;4178210;28;20029;-87
2022/02/21 09:57:13;;;;;;;9.87;4.23;;;10.20;98.90;;;;;;4178795;28;20059;-87
2022/02/21 09:59:14;;;;;;;8.73;4.03;;;10.30;98.60;;;;;;4177202;28;20075;-55
2022/02/21 10:01:15;;;;;;;7.17;4.20;;;10.30;98.50;;;;;;4176540;28;20099;-90
2022/02/21 10:03:43;;;;;;;9.83;4.57;;;10.40;98.20;;;;;;4176946;28;20106;-68
2022/02/21 10:05:48;;;;;;;7.23;4.17;;;10.50;97.60;;;;;;4178175;28;20126;-77
2022/02/21 10:07:49;;;;;;;10.53;4.93;;;10.60;98.00;;;;;;4157407;28;20083;-62
2022/02/21 10:09:58;;;;;;;7.70;6.10;;;10.30;98.80;;;;;;4159399;28;20029;-71
2022/02/21 10:12:00;;;;;;;14.17;6.03;;;10.20;98.80;;;;;;4158648;28;20037;-88
2022/02/21 10:14:04;;;;;;;11.23;4.73;;;10.20;99.00;;;;;;4159276;28;20091;-53
2022/02/21 10:16:05;;;;;;;14.00;6.03;;;10.20;99.50;;;;;;4162968;28;20033;-58
2022/02/21 10:18:13;;;;;;;17.50;6.07;;;10.20;99.30;;;;;;4175417;28;20037;-66
2022/02/21 10:20:17;;;;;;;8.43;4.77;;;10.20;98.90;;;;;;4177325;28;20489;-50
2022/02/21 10:22:23;;;;;;;14.73;5.43;;;10.20;98.90;;;;;;4174845;28;20037;-73
2022/02/21 10:24:25;;;;;;;16.43;6.80;;;10.30;98.80;;;;;;4177192;28;20059;-61
2022/02/21 10:26:30;;;;;;;16.90;4.93;;;10.40;98.50;;;;;;4174660;28;20107;-81